Time;durP1;ratioP1;P1;durP2;ratioP2;P2;SDS_P1;SDS_P2;PMS_P1;PMS_P2;Temp;Humidity;BMP_temperature;BMP_pressure;BME280_temperature;BME280_humidity;BME280_pressure;Samples;Min_cycle;Max_cycle;Signal;HPM_P1;HPM_P2
2023/02/17 00:01:12;;;;;;;61.00;28.67;;;;;;;;;;755809;185;910060;-69
2023/02/17 00:03:38;;;;;;;54.40;22.63;;;;;;;;;;764172;183;919631;-69
2023/02/17 00:06:04;;;;;;;84.50;31.13;;;;;;;;;;761925;183;919336;-69
2023/02/17 00:08:30;;;;;;;72.07;30.90;;;;;;;;;;755433;184;1020109;-69
2023/02/17 00:10:56;;;;;;;72.82;28.77;;;;;;;;;;762521;184;919162;-68
2023/02/17 00:13:22;;;;;;;62.63;30.00;;;;;;;;;;755295;185;918665;-69
2023/02/17 00:15:48;;;;;;;61.47;28.37;;;;;;;;;;754911;185;1019709;-69
2023/02/17 00:18:13;;;;;;;43.78;20.98;;;;;;;;;;768435;183;920936;-69
2023/02/17 00:20:39;;;;;;;49.53;24.10;;;;;;;;;;762865;183;919629;-69
2023/02/17 00:23:05;;;;;;;49.17;24.73;;;;;;;;;;765511;183;917985;-69
2023/02/17 00:25:31;;;;;;;57.25;28.27;;;;;;;;;;767296;183;917352;-69
2023/02/17 00:27:57;;;;;;;57.73;28.43;;;;;;;;;;765172;181;919116;-69
2023/02/17 00:30:23;;;;;;;51.23;23.73;;;;;;;;;;760043;183;919430;-69
2023/02/17 00:32:49;;;;;;;66.80;27.80;;;;;;;;;;760729;184;919038;-69
2023/02/17 00:35:15;;;;;;;53.43;26.23;;;;;;;;;;763480;184;918063;-69
2023/02/17 00:37:44;;;;;;;48.37;23.20;;;;;;;;;;762717;183;915180;-69
2023/02/17 00:40:07;;;;;;;62.15;26.98;;;;;;;;;;759434;182;919254;-69
2023/02/17 00:42:33;;;;;;;52.00;24.57;;;;;;;;;;767384;183;920468;-69
2023/02/17 00:44:58;;;;;;;61.27;27.77;;;;;;;;;;756879;185;918847;-69
2023/02/17 00:47:24;;;;;;;59.70;28.10;;;;;;;;;;763270;183;919541;-69
2023/02/17 00:49:50;;;;;;;60.70;28.37;;;;;;;;;;764474;184;918579;-69
2023/02/17 00:52:16;;;;;;;54.87;24.70;;;;;;;;;;763123;183;1018799;-68
2023/02/17 00:54:42;;;;;;;44.83;24.60;;;;;;;;;;764469;183;919146;-69
2023/02/17 00:57:08;;;;;;;55.73;27.40;;;;;;;;;;764503;183;917509;-69
2023/02/17 00:59:34;;;;;;;57.80;28.08;;;;;;;;;;762121;184;919435;-69
2023/02/17 01:01:59;;;;;;;49.87;28.40;;;;;;;;;;759136;182;918514;-68
2023/02/17 01:04:25;;;;;;;47.27;24.40;;;;;;;;;;758652;184;919339;-69
2023/02/17 01:06:51;;;;;;;53.60;26.50;;;;;;;;;;766605;183;918793;-69
2023/02/17 01:09:17;;;;;;;52.47;25.57;;;;;;;;;;762136;183;1020564;-69
2023/02/17 01:11:43;;;;;;;57.23;27.87;;;;;;;;;;761789;179;919233;-69
2023/02/17 01:14:09;;;;;;;77.20;30.97;;;;;;;;;;759909;185;919456;-70
2023/02/17 01:16:34;;;;;;;65.03;30.97;;;;;;;;;;754222;185;921999;-69
2023/02/17 01:19:01;;;;;;;58.07;29.83;;;;;;;;;;756760;182;935160;-69
2023/02/17 01:21:27;;;;;;;71.00;32.40;;;;;;;;;;758601;182;918219;-69
2023/02/17 01:23:53;;;;;;;69.33;31.63;;;;;;;;;;761687;184;919242;-68
2023/02/17 01:26:19;;;;;;;67.60;29.10;;;;;;;;;;755390;183;924312;-69
2023/02/17 01:28:45;;;;;;;69.40;30.47;;;;;;;;;;756228;184;919075;-69
2023/02/17 01:31:10;;;;;;;55.27;27.40;;;;;;;;;;763679;184;918628;-70
2023/02/17 01:33:36;;;;;;;67.03;29.90;;;;;;;;;;761286;184;919580;-69
2023/02/17 01:36:02;;;;;;;64.57;28.67;;;;;;;;;;763834;183;918009;-70
2023/02/17 01:38:28;;;;;;;61.90;29.90;;;;;;;;;;766817;183;918863;-70
2023/02/17 01:40:54;;;;;;;64.63;32.60;;;;;;;;;;761161;181;918935;-69
2023/02/17 01:43:20;;;;;;;72.77;32.73;;;;;;;;;;758236;182;918707;-70
2023/02/17 01:45:46;;;;;;;73.60;30.60;;;;;;;;;;755893;182;918669;-69
2023/02/17 01:48:11;;;;;;;62.03;33.57;;;;;;;;;;745112;185;1022775;-69
2023/02/17 01:50:38;;;;;;;75.43;30.97;;;;;;;;;;752051;182;919036;-69
2023/02/17 01:53:04;;;;;;;68.37;33.20;;;;;;;;;;743135;182;1021241;-69
2023/02/17 01:55:30;;;;;;;67.70;30.93;;;;;;;;;;749368;185;918621;-70
2023/02/17 01:57:55;;;;;;;74.50;33.70;;;;;;;;;;750254;183;918726;-70
2023/02/17 02:00:21;;;;;;;68.33;33.00;;;;;;;;;;758871;182;919599;-69
2023/02/17 02:02:47;;;;;;;72.43;32.83;;;;;;;;;;758465;183;918480;-69
2023/02/17 02:05:13;;;;;;;77.53;35.20;;;;;;;;;;761465;183;930437;-69
2023/02/17 02:07:39;;;;;;;69.03;33.87;;;;;;;;;;757511;183;1103603;-69
2023/02/17 02:10:05;;;;;;;85.73;34.17;;;;;;;;;;761338;184;920225;-68
2023/02/17 02:12:31;;;;;;;81.63;35.03;;;;;;;;;;763758;184;919186;-69
2023/02/17 02:14:58;;;;;;;77.25;35.50;;;;;;;;;;747231;182;925242;-69
2023/02/17 02:17:28;;;;;;;96.23;34.67;;;;;;;;;;756467;182;922073;-69
2023/02/17 02:20:12;;;;;;;74.70;35.70;;;;;;;;;;758331;182;1021080;-69
2023/02/17 02:22:49;;;;;;;74.63;35.20;;;;;;;;;;756938;182;1021272;-70
2023/02/17 02:25:18;;;;;;;85.27;38.23;;;;;;;;;;770475;183;916297;-70
2023/02/17 02:27:45;;;;;;;71.10;34.07;;;;;;;;;;765283;183;919071;-70
2023/02/17 02:30:27;;;;;;;80.77;38.83;;;;;;;;;;757455;182;1014307;-70
2023/02/17 02:32:54;;;;;;;101.53;38.43;;;;;;;;;;756576;183;938610;-69
2023/02/17 02:35:20;;;;;;;79.65;34.85;;;;;;;;;;755541;183;920614;-69
2023/02/17 02:37:48;;;;;;;83.90;34.57;;;;;;;;;;745492;184;943385;-70
2023/02/17 02:40:13;;;;;;;79.70;37.43;;;;;;;;;;757582;183;910610;-70
2023/02/17 02:42:39;;;;;;;75.33;35.37;;;;;;;;;;757115;184;914192;-70
2023/02/17 02:45:08;;;;;;;82.37;34.77;;;;;;;;;;763601;184;910321;-69
2023/02/17 02:47:48;;;;;;;90.30;41.10;;;;;;;;;;759650;183;912310;-69
2023/02/17 02:50:15;;;;;;;84.47;36.10;;;;;;;;;;755281;184;1012730;-70
2023/02/17 02:52:43;;;;;;;90.32;38.85;;;;;;;;;;753805;183;1021648;-69
2023/02/17 02:55:08;;;;;;;81.23;37.57;;;;;;;;;;761382;183;919180;-70
2023/02/17 02:57:50;;;;;;;77.50;34.57;;;;;;;;;;757080;183;915978;-70
2023/02/17 03:00:18;;;;;;;89.83;39.00;;;;;;;;;;759436;182;915610;-69
2023/02/17 03:02:53;;;;;;;86.17;35.70;;;;;;;;;;758708;184;918649;-69
2023/02/17 03:05:34;;;;;;;81.00;36.77;;;;;;;;;;761009;183;1021664;-70
2023/02/17 03:08:00;;;;;;;99.70;38.17;;;;;;;;;;760523;183;1011461;-70
2023/02/17 03:10:26;;;;;;;87.23;39.87;;;;;;;;;;763589;184;870372;-69
2023/02/17 03:12:52;;;;;;;86.47;40.12;;;;;;;;;;757752;183;919801;-69
2023/02/17 03:15:18;;;;;;;85.43;39.10;;;;;;;;;;757821;183;919024;-70
2023/02/17 03:17:43;;;;;;;81.10;39.70;;;;;;;;;;760723;183;919789;-70
2023/02/17 03:20:10;;;;;;;74.77;35.10;;;;;;;;;;763314;182;920033;-70
2023/02/17 03:22:35;;;;;;;81.97;37.47;;;;;;;;;;755142;183;918944;-69
2023/02/17 03:25:01;;;;;;;99.63;37.87;;;;;;;;;;756603;184;919440;-70
2023/02/17 03:27:27;;;;;;;92.80;39.38;;;;;;;;;;766813;183;918853;-70
2023/02/17 03:29:53;;;;;;;77.03;37.50;;;;;;;;;;757407;182;1021913;-70
2023/02/17 03:32:19;;;;;;;92.00;36.63;;;;;;;;;;756968;184;919109;-70
2023/02/17 03:34:45;;;;;;;83.00;35.10;;;;;;;;;;769823;183;918199;-70
2023/02/17 03:37:11;;;;;;;83.90;35.93;;;;;;;;;;759241;184;917910;-70
2023/02/17 03:39:36;;;;;;;87.77;39.47;;;;;;;;;;758240;183;919194;-70
2023/02/17 03:42:02;;;;;;;87.33;35.70;;;;;;;;;;760683;183;920661;-71
2023/02/17 03:44:28;;;;;;;77.17;36.03;;;;;;;;;;763273;181;919880;-70
2023/02/17 03:46:54;;;;;;;82.55;34.47;;;;;;;;;;761037;183;918728;-70
2023/02/17 03:49:20;;;;;;;76.27;35.70;;;;;;;;;;758148;181;919191;-69
2023/02/17 03:51:46;;;;;;;79.47;34.80;;;;;;;;;;761931;184;920317;-70
2023/02/17 03:54:11;;;;;;;94.03;37.70;;;;;;;;;;756242;184;1021566;-69
2023/02/17 03:56:38;;;;;;;91.93;38.43;;;;;;;;;;754080;185;918149;-69
2023/02/17 03:59:04;;;;;;;91.00;39.47;;;;;;;;;;758133;183;965607;-69
2023/02/17 04:01:29;;;;;;;96.63;41.20;;;;;;;;;;755215;183;919266;-70
2023/02/17 04:03:55;;;;;;;86.70;34.30;;;;;;;;;;757129;183;919333;-69
2023/02/17 04:06:21;;;;;;;85.40;36.90;;;;;;;;;;771322;182;918429;-69
2023/02/17 04:08:47;;;;;;;105.18;41.35;;;;;;;;;;763784;182;1020383;-69
2023/02/17 04:11:13;;;;;;;81.27;37.30;;;;;;;;;;764933;183;918436;-70
2023/02/17 04:13:39;;;;;;;82.23;34.37;;;;;;;;;;763103;183;918005;-69
2023/02/17 04:16:05;;;;;;;80.00;35.53;;;;;;;;;;760835;183;919042;-70
2023/02/17 04:18:32;;;;;;;92.72;38.60;;;;;;;;;;760623;183;920644;-69
2023/02/17 04:20:57;;;;;;;79.93;37.00;;;;;;;;;;765253;183;918769;-69
2023/02/17 04:23:22;;;;;;;75.43;33.50;;;;;;;;;;768351;183;998721;-69
2023/02/17 04:25:48;;;;;;;89.93;44.47;;;;;;;;;;758725;183;1007492;-69
2023/02/17 04:28:14;;;;;;;80.17;35.33;;;;;;;;;;756138;183;1020994;-69
2023/02/17 04:30:42;;;;;;;86.87;37.33;;;;;;;;;;764547;183;919150;-69
2023/02/17 04:33:08;;;;;;;90.87;35.33;;;;;;;;;;764271;183;917869;-69
2023/02/17 04:35:34;;;;;;;85.23;35.97;;;;;;;;;;756578;183;919947;-70
2023/02/17 04:38:00;;;;;;;97.67;40.50;;;;;;;;;;759363;183;973645;-69
2023/02/17 04:40:26;;;;;;;103.60;41.57;;;;;;;;;;768852;183;919383;-69
2023/02/17 04:42:52;;;;;;;107.43;44.50;;;;;;;;;;764485;183;918882;-69
2023/02/17 04:45:18;;;;;;;98.22;40.00;;;;;;;;;;763214;183;1022179;-69
2023/02/17 04:47:44;;;;;;;112.43;46.03;;;;;;;;;;768445;183;921054;-69
2023/02/17 04:50:09;;;;;;;114.97;44.43;;;;;;;;;;757929;183;920532;-69
2023/02/17 04:52:35;;;;;;;102.03;41.20;;;;;;;;;;757868;183;917881;-69
2023/02/17 04:55:01;;;;;;;84.72;40.50;;;;;;;;;;761508;184;918285;-70
2023/02/17 04:57:27;;;;;;;109.43;44.77;;;;;;;;;;752413;185;920366;-69
2023/02/17 04:59:53;;;;;;;104.57;40.40;;;;;;;;;;753638;183;918589;-69
2023/02/17 05:02:19;;;;;;;110.53;44.97;;;;;;;;;;758328;183;918733;-68
2023/02/17 05:04:45;;;;;;;94.63;39.60;;;;;;;;;;766579;183;895594;-69
2023/02/17 05:07:10;;;;;;;89.40;38.78;;;;;;;;;;757667;183;919558;-69
2023/02/17 05:09:36;;;;;;;92.00;37.10;;;;;;;;;;762216;183;917419;-69
2023/02/17 05:12:04;;;;;;;104.63;43.07;;;;;;;;;;761971;183;919296;-69
2023/02/17 05:14:28;;;;;;;95.82;39.83;;;;;;;;;;760989;183;919889;-69
2023/02/17 05:16:54;;;;;;;112.10;47.17;;;;;;;;;;761409;183;919252;-69
2023/02/17 05:19:20;;;;;;;107.00;43.90;;;;;;;;;;766122;182;919554;-70
2023/02/17 05:21:46;;;;;;;109.63;46.87;;;;;;;;;;757507;183;919701;-69
2023/02/17 05:24:11;;;;;;;104.47;45.00;;;;;;;;;;758070;183;1002074;-69
2023/02/17 05:26:38;;;;;;;100.13;41.30;;;;;;;;;;760260;183;921597;-69
2023/02/17 05:29:04;;;;;;;97.87;44.03;;;;;;;;;;764357;182;915003;-69
2023/02/17 05:31:30;;;;;;;91.30;39.13;;;;;;;;;;759826;183;896600;-69
2023/02/17 05:33:55;;;;;;;90.23;37.67;;;;;;;;;;759220;183;918059;-69
2023/02/17 05:36:21;;;;;;;100.93;42.43;;;;;;;;;;765436;183;919357;-69
2023/02/17 05:38:48;;;;;;;101.17;41.90;;;;;;;;;;758720;184;916583;-69
2023/02/17 05:41:13;;;;;;;108.47;39.50;;;;;;;;;;764333;183;918656;-69
2023/02/17 05:43:39;;;;;;;104.20;40.20;;;;;;;;;;763570;183;919465;-69
2023/02/17 05:46:05;;;;;;;95.90;45.70;;;;;;;;;;760623;183;919393;-68
2023/02/17 05:48:31;;;;;;;98.17;40.83;;;;;;;;;;759620;183;1019762;-71
2023/02/17 05:50:57;;;;;;;122.80;50.80;;;;;;;;;;763400;183;919732;-70
2023/02/17 05:53:22;;;;;;;102.30;44.07;;;;;;;;;;770112;181;918255;-69
2023/02/17 05:55:48;;;;;;;95.10;43.60;;;;;;;;;;758649;182;918631;-69
2023/02/17 05:58:14;;;;;;;89.14;36.80;;;;;;;;;;761195;183;1022778;-69
2023/02/17 06:00:40;;;;;;;94.80;42.27;;;;;;;;;;765591;183;919739;-69
2023/02/17 06:03:06;;;;;;;99.50;37.90;;;;;;;;;;763333;183;911361;-69
2023/02/17 06:05:32;;;;;;;89.53;37.40;;;;;;;;;;761445;183;918558;-70
2023/02/17 06:07:57;;;;;;;85.43;35.83;;;;;;;;;;769455;183;918091;-69
2023/02/17 06:10:23;;;;;;;82.90;39.50;;;;;;;;;;757501;183;918088;-69
2023/02/17 06:12:49;;;;;;;91.70;35.15;;;;;;;;;;760877;183;918039;-69
2023/02/17 06:15:15;;;;;;;89.67;39.30;;;;;;;;;;761084;183;1019342;-70
2023/02/17 06:17:41;;;;;;;75.97;37.23;;;;;;;;;;754901;183;990865;-70
2023/02/17 06:20:07;;;;;;;78.60;38.80;;;;;;;;;;757494;183;917636;-69
2023/02/17 06:22:33;;;;;;;96.37;36.87;;;;;;;;;;760894;183;999861;-69
2023/02/17 06:24:59;;;;;;;75.63;36.33;;;;;;;;;;765785;183;920573;-70
2023/02/17 06:27:25;;;;;;;87.33;34.97;;;;;;;;;;758808;182;919028;-69
2023/02/17 06:29:51;;;;;;;80.80;39.30;;;;;;;;;;759365;183;909079;-69
2023/02/17 06:32:17;;;;;;;91.03;38.47;;;;;;;;;;765745;183;911468;-69
2023/02/17 06:34:43;;;;;;;88.47;37.67;;;;;;;;;;759947;183;921872;-69
2023/02/17 06:37:08;;;;;;;79.33;35.87;;;;;;;;;;757922;184;918932;-69
2023/02/17 06:39:34;;;;;;;80.23;34.67;;;;;;;;;;763635;184;920246;-69
2023/02/17 06:42:00;;;;;;;90.03;37.77;;;;;;;;;;762420;183;916540;-69
2023/02/17 06:44:26;;;;;;;80.10;39.17;;;;;;;;;;759196;183;919142;-70
2023/02/17 06:46:52;;;;;;;80.67;38.73;;;;;;;;;;757617;184;919831;-69
2023/02/17 06:49:18;;;;;;;90.83;38.20;;;;;;;;;;764533;183;919192;-69
2023/02/17 06:51:43;;;;;;;79.10;35.10;;;;;;;;;;755643;183;1120384;-69
2023/02/17 06:54:09;;;;;;;88.10;39.07;;;;;;;;;;761570;183;919285;-69
2023/02/17 06:56:35;;;;;;;73.00;34.13;;;;;;;;;;765498;183;917956;-69
2023/02/17 06:59:01;;;;;;;75.37;35.27;;;;;;;;;;764903;183;918231;-69
2023/02/17 07:01:27;;;;;;;78.33;33.07;;;;;;;;;;757740;183;918868;-69
2023/02/17 07:03:53;;;;;;;67.97;34.40;;;;;;;;;;763482;183;916882;-69
2023/02/17 07:06:19;;;;;;;70.07;32.78;;;;;;;;;;757489;183;1017927;-68
2023/02/17 07:08:44;;;;;;;59.60;29.67;;;;;;;;;;757854;184;919028;-69
2023/02/17 07:11:10;;;;;;;62.53;29.20;;;;;;;;;;759103;183;916267;-70
2023/02/17 07:13:36;;;;;;;69.60;31.57;;;;;;;;;;766166;182;919006;-69
2023/02/17 07:16:02;;;;;;;53.97;26.30;;;;;;;;;;758983;183;921657;-70
2023/02/17 07:18:28;;;;;;;50.22;27.73;;;;;;;;;;760064;183;1020937;-70
2023/02/17 07:20:54;;;;;;;51.37;25.95;;;;;;;;;;762496;184;936381;-70
2023/02/17 07:23:20;;;;;;;48.77;26.67;;;;;;;;;;761850;183;919012;-70
2023/02/17 07:25:45;;;;;;;49.30;26.47;;;;;;;;;;762028;183;919239;-69
2023/02/17 07:28:11;;;;;;;46.30;26.53;;;;;;;;;;763169;183;920088;-70
2023/02/17 07:30:38;;;;;;;52.93;25.93;;;;;;;;;;756018;185;916562;-70
2023/02/17 07:33:04;;;;;;;44.15;24.17;;;;;;;;;;757104;183;914747;-70
2023/02/17 07:35:30;;;;;;;37.97;21.37;;;;;;;;;;760527;183;915641;-70
2023/02/17 07:37:56;;;;;;;43.07;23.63;;;;;;;;;;756878;183;920932;-69
2023/02/17 07:40:22;;;;;;;38.40;22.00;;;;;;;;;;759680;182;918801;-70
2023/02/17 07:42:47;;;;;;;44.17;25.93;;;;;;;;;;759023;183;919345;-70
2023/02/17 07:45:13;;;;;;;39.37;23.87;;;;;;;;;;766782;183;918790;-70
2023/02/17 07:47:39;;;;;;;40.63;23.73;;;;;;;;;;765090;183;918600;-71
2023/02/17 07:50:06;;;;;;;42.33;22.83;;;;;;;;;;763686;183;919211;-70
2023/02/17 07:52:31;;;;;;;45.57;25.47;;;;;;;;;;762875;184;919053;-70
2023/02/17 07:54:57;;;;;;;40.40;24.07;;;;;;;;;;756519;183;938903;-70
2023/02/17 07:57:23;;;;;;;44.13;23.90;;;;;;;;;;759604;183;917011;-70
2023/02/17 07:59:49;;;;;;;45.87;25.80;;;;;;;;;;766316;183;972878;-70
2023/02/17 08:02:15;;;;;;;44.23;24.13;;;;;;;;;;758993;183;918907;-69
2023/02/17 08:04:41;;;;;;;50.63;25.47;;;;;;;;;;756946;182;918730;-70
2023/02/17 08:07:07;;;;;;;37.50;21.60;;;;;;;;;;758358;183;918853;-69
2023/02/17 08:14:37;;;;;;;35.83;18.53;;;;;;;;;;757158;184;918991;-70
2023/02/17 08:17:02;;;;;;;33.33;19.00;;;;;;;;;;756664;183;917529;-70
2023/02/17 08:19:28;;;;;;;37.80;22.07;;;;;;;;;;763987;184;919024;-70
2023/02/17 08:21:53;;;;;;;36.72;22.15;;;;;;;;;;756525;183;920067;-70
2023/02/17 08:24:20;;;;;;;40.23;23.00;;;;;;;;;;756747;182;1040392;-69
2023/02/17 08:26:46;;;;;;;44.77;21.93;;;;;;;;;;762300;183;917727;-70
2023/02/17 08:29:11;;;;;;;45.63;22.62;;;;;;;;;;759308;182;920210;-69
2023/02/17 08:31:37;;;;;;;46.33;24.23;;;;;;;;;;755082;183;1020624;-69
2023/02/17 08:34:03;;;;;;;35.83;20.13;;;;;;;;;;763729;183;918706;-69
2023/02/17 08:36:29;;;;;;;46.77;20.73;;;;;;;;;;759468;183;919494;-70
2023/02/17 08:38:55;;;;;;;35.20;20.50;;;;;;;;;;755395;183;918912;-69
2023/02/17 08:41:21;;;;;;;42.17;23.10;;;;;;;;;;755526;182;918101;-69
2023/02/17 08:43:47;;;;;;;41.30;21.77;;;;;;;;;;761837;183;917481;-69
2023/02/17 08:46:13;;;;;;;35.43;18.17;;;;;;;;;;755146;183;919157;-69
2023/02/17 08:48:38;;;;;;;46.30;24.43;;;;;;;;;;756170;183;919029;-70
2023/02/17 08:51:04;;;;;;;38.40;23.83;;;;;;;;;;763665;183;916890;-69
2023/02/17 08:53:30;;;;;;;42.00;23.47;;;;;;;;;;758533;183;920508;-69
2023/02/17 08:55:56;;;;;;;40.33;22.20;;;;;;;;;;758868;182;1124148;-69
2023/02/17 08:58:22;;;;;;;34.87;22.57;;;;;;;;;;766031;183;916394;-70
2023/02/17 09:00:48;;;;;;;47.37;24.10;;;;;;;;;;767699;183;630767;-70
2023/02/17 09:03:14;;;;;;;37.78;21.17;;;;;;;;;;765709;183;919406;-70
2023/02/17 09:05:40;;;;;;;48.77;21.30;;;;;;;;;;762723;183;918572;-70
2023/02/17 09:08:06;;;;;;;36.87;20.07;;;;;;;;;;764540;182;919066;-69
2023/02/17 09:10:32;;;;;;;40.33;22.73;;;;;;;;;;764897;183;918096;-69
2023/02/17 09:12:57;;;;;;;39.03;21.43;;;;;;;;;;765865;183;918904;-69
2023/02/17 09:15:23;;;;;;;38.23;21.37;;;;;;;;;;774678;183;629334;-70
2023/02/17 09:17:49;;;;;;;40.87;22.47;;;;;;;;;;763231;183;638122;-70
2023/02/17 09:20:15;;;;;;;37.65;19.50;;;;;;;;;;758205;183;918181;-71
2023/02/17 09:22:41;;;;;;;37.80;19.77;;;;;;;;;;764077;183;922163;-69
2023/02/17 09:25:07;;;;;;;37.30;21.15;;;;;;;;;;757734;183;919408;-71
2023/02/17 09:27:33;;;;;;;35.88;19.50;;;;;;;;;;755795;184;1022325;-70
2023/02/17 09:29:59;;;;;;;39.58;21.83;;;;;;;;;;757718;184;921255;-70
2023/02/17 09:32:25;;;;;;;38.87;20.20;;;;;;;;;;754978;183;919399;-69
2023/02/17 09:34:51;;;;;;;41.83;22.80;;;;;;;;;;744409;185;920487;-70
2023/02/17 09:37:17;;;;;;;42.93;23.40;;;;;;;;;;750446;182;919092;-70
2023/02/17 09:39:43;;;;;;;39.57;25.60;;;;;;;;;;757932;184;919608;-69
2023/02/17 09:42:09;;;;;;;39.00;23.60;;;;;;;;;;755385;183;918788;-70
2023/02/17 09:44:38;;;;;;;41.00;18.70;;;;;;;;;;757153;183;921698;-70
2023/02/17 09:47:04;;;;;;;42.67;24.17;;;;;;;;;;765212;184;921169;-69
2023/02/17 09:49:30;;;;;;;42.57;23.13;;;;;;;;;;760748;183;1026231;-69
2023/02/17 09:52:11;;;;;;;46.67;23.40;;;;;;;;;;760116;184;920438;-69
2023/02/17 09:54:43;;;;;;;43.13;25.50;;;;;;;;;;759705;183;1019471;-69
2023/02/17 09:57:08;;;;;;;44.90;21.83;;;;;;;;;;757186;183;916749;-70
2023/02/17 09:59:36;;;;;;;38.77;22.40;;;;;;;;;;761719;183;918111;-70
2023/02/17 10:02:02;;;;;;;34.70;21.27;;;;;;;;;;761439;182;923256;-70
2023/02/17 10:04:30;;;;;;;37.27;18.23;;;;;;;;;;761405;183;912339;-69
2023/02/17 10:06:58;;;;;;;44.08;23.62;;;;;;;;;;766136;183;922105;-70
2023/02/17 10:09:26;;;;;;;41.47;22.60;;;;;;;;;;766315;183;918873;-69
2023/02/17 10:11:54;;;;;;;35.80;20.57;;;;;;;;;;762411;183;919524;-69
2023/02/17 10:14:31;;;;;;;41.90;23.13;;;;;;;;;;766469;183;919107;-69
2023/02/17 10:17:00;;;;;;;38.83;20.93;;;;;;;;;;758887;184;916743;-69
2023/02/17 10:19:28;;;;;;;50.63;23.43;;;;;;;;;;764599;182;919236;-69
2023/02/17 10:21:56;;;;;;;45.40;23.63;;;;;;;;;;760215;182;919931;-69
2023/02/17 10:24:22;;;;;;;44.63;23.70;;;;;;;;;;757928;182;918695;-69
2023/02/17 10:26:48;;;;;;;40.33;23.90;;;;;;;;;;757386;182;918992;-69
2023/02/17 10:29:15;;;;;;;36.13;20.27;;;;;;;;;;760216;183;918794;-69
2023/02/17 10:31:44;;;;;;;33.17;18.63;;;;;;;;;;756343;183;918063;-69
2023/02/17 10:34:11;;;;;;;41.07;22.33;;;;;;;;;;757988;182;920090;-70
2023/02/17 10:36:38;;;;;;;38.67;19.80;;;;;;;;;;766928;183;919697;-70
2023/02/17 10:39:19;;;;;;;38.97;22.27;;;;;;;;;;760659;183;922751;-69
2023/02/17 10:41:44;;;;;;;35.30;19.43;;;;;;;;;;755247;183;920648;-70
2023/02/17 10:44:11;;;;;;;37.87;20.63;;;;;;;;;;756634;184;923045;-70
2023/02/17 10:46:37;;;;;;;41.00;21.83;;;;;;;;;;753091;183;922148;-70
2023/02/17 10:49:03;;;;;;;38.40;19.70;;;;;;;;;;757935;183;918748;-70
2023/02/17 10:51:28;;;;;;;44.40;24.00;;;;;;;;;;757220;183;918913;-69
2023/02/17 10:53:57;;;;;;;30.90;20.57;;;;;;;;;;756642;183;919173;-69
2023/02/17 10:56:24;;;;;;;45.10;22.23;;;;;;;;;;763013;183;912758;-69
2023/02/17 10:58:51;;;;;;;39.03;21.23;;;;;;;;;;758035;183;918513;-70
2023/02/17 11:01:17;;;;;;;31.30;20.67;;;;;;;;;;753268;184;919054;-70
2023/02/17 11:03:43;;;;;;;36.47;20.87;;;;;;;;;;755253;185;919926;-70
2023/02/17 11:06:15;;;;;;;38.00;21.30;;;;;;;;;;755369;184;920268;-70
2023/02/17 11:08:43;;;;;;;37.73;19.20;;;;;;;;;;757776;182;917499;-70
2023/02/17 11:11:12;;;;;;;40.50;19.20;;;;;;;;;;759168;183;1020853;-69
2023/02/17 11:13:38;;;;;;;44.58;23.05;;;;;;;;;;762488;184;920026;-69
2023/02/17 11:16:04;;;;;;;45.73;22.33;;;;;;;;;;758651;182;918037;-69
2023/02/17 11:18:31;;;;;;;43.63;21.20;;;;;;;;;;755898;184;921047;-69
2023/02/17 11:21:08;;;;;;;39.57;23.23;;;;;;;;;;759802;184;920218;-69
2023/02/17 11:23:34;;;;;;;36.57;20.17;;;;;;;;;;767561;183;920286;-69
2023/02/17 11:26:15;;;;;;;35.33;19.93;;;;;;;;;;759843;183;920223;-68
2023/02/17 11:28:40;;;;;;;38.20;20.80;;;;;;;;;;757538;184;915223;-69
2023/02/17 11:31:08;;;;;;;38.23;21.23;;;;;;;;;;758620;183;920175;-69
2023/02/17 11:33:32;;;;;;;36.90;21.30;;;;;;;;;;761356;183;907855;-69
2023/02/17 11:35:58;;;;;;;34.43;19.17;;;;;;;;;;766934;179;913879;-69
2023/02/17 11:38:25;;;;;;;32.90;19.33;;;;;;;;;;756456;183;921359;-69
2023/02/17 11:40:51;;;;;;;32.13;21.03;;;;;;;;;;762200;183;914604;-69
2023/02/17 11:43:19;;;;;;;32.23;18.93;;;;;;;;;;763917;183;913349;-69
2023/02/17 11:45:49;;;;;;;29.53;17.73;;;;;;;;;;759069;184;913387;-69
2023/02/17 11:48:30;;;;;;;37.83;19.63;;;;;;;;;;760619;183;919744;-69
2023/02/17 11:50:56;;;;;;;31.33;20.00;;;;;;;;;;751126;183;918581;-69
2023/02/17 11:53:23;;;;;;;31.87;19.80;;;;;;;;;;757794;182;921184;-68
2023/02/17 11:55:51;;;;;;;34.27;18.40;;;;;;;;;;761858;183;918530;-69
2023/02/17 11:58:32;;;;;;;29.10;16.80;;;;;;;;;;756218;183;920245;-69
2023/02/17 12:01:14;;;;;;;32.47;20.97;;;;;;;;;;752931;185;1021953;-69
2023/02/17 12:03:57;;;;;;;34.40;19.23;;;;;;;;;;757033;183;917852;-69
2023/02/17 12:06:24;;;;;;;31.20;17.23;;;;;;;;;;758942;183;919358;-69
2023/02/17 12:08:53;;;;;;;46.03;24.13;;;;;;;;;;759702;183;936751;-69
2023/02/17 12:11:19;;;;;;;36.13;21.57;;;;;;;;;;761014;183;918658;-70
2023/02/17 12:13:48;;;;;;;36.20;19.33;;;;;;;;;;758804;183;919130;-69
2023/02/17 12:16:15;;;;;;;39.10;20.87;;;;;;;;;;758503;183;918520;-69
2023/02/17 12:18:44;;;;;;;34.43;21.83;;;;;;;;;;756737;183;919421;-70
2023/02/17 12:21:11;;;;;;;33.90;22.00;;;;;;;;;;764704;184;918820;-69
2023/02/17 12:23:38;;;;;;;34.30;21.13;;;;;;;;;;756978;183;919391;-69
2023/02/17 12:26:06;;;;;;;40.30;20.27;;;;;;;;;;758421;182;918157;-69
2023/02/17 12:28:41;;;;;;;45.20;22.73;;;;;;;;;;761298;183;914303;-69
2023/02/17 12:31:23;;;;;;;40.07;22.30;;;;;;;;;;763102;183;929038;-69
2023/02/17 12:33:54;;;;;;;34.43;20.87;;;;;;;;;;763742;183;918106;-69
2023/02/17 12:36:20;;;;;;;39.00;22.37;;;;;;;;;;765234;183;918718;-69
2023/02/17 12:38:48;;;;;;;33.77;22.00;;;;;;;;;;757563;183;917864;-69
2023/02/17 12:41:17;;;;;;;37.72;21.40;;;;;;;;;;758623;183;918973;-69
2023/02/17 12:43:46;;;;;;;37.03;21.57;;;;;;;;;;762399;183;919997;-69
2023/02/17 12:46:14;;;;;;;32.07;20.73;;;;;;;;;;759193;183;918571;-69
2023/02/17 12:48:41;;;;;;;36.40;20.30;;;;;;;;;;760252;183;918346;-69
2023/02/17 12:51:07;;;;;;;38.17;21.17;;;;;;;;;;759465;183;1020896;-69
2023/02/17 12:53:33;;;;;;;30.37;19.20;;;;;;;;;;762430;183;920421;-69
2023/02/17 12:55:59;;;;;;;30.90;18.70;;;;;;;;;;759974;183;1020935;-69
2023/02/17 12:58:25;;;;;;;29.03;19.10;;;;;;;;;;762900;182;917335;-69
2023/02/17 13:00:52;;;;;;;29.37;18.80;;;;;;;;;;765238;183;918772;-68
2023/02/17 13:03:18;;;;;;;24.83;16.13;;;;;;;;;;759650;183;1020491;-69
2023/02/17 13:05:45;;;;;;;28.52;17.73;;;;;;;;;;757493;183;919541;-69
2023/02/17 13:08:17;;;;;;;36.20;19.87;;;;;;;;;;757084;183;927578;-69
2023/02/17 13:10:43;;;;;;;36.80;19.53;;;;;;;;;;765330;183;892791;-69
2023/02/17 13:13:09;;;;;;;29.57;18.23;;;;;;;;;;757772;183;919658;-69
2023/02/17 13:15:34;;;;;;;30.33;17.80;;;;;;;;;;759438;183;919502;-69
2023/02/17 13:18:03;;;;;;;29.27;17.60;;;;;;;;;;762146;183;918463;-69
2023/02/17 13:20:35;;;;;;;31.03;18.93;;;;;;;;;;762682;184;628389;-69
2023/02/17 13:23:02;;;;;;;30.33;18.50;;;;;;;;;;763923;183;634105;-69
2023/02/17 13:25:28;;;;;;;31.40;19.37;;;;;;;;;;757938;183;1015442;-69
2023/02/17 13:27:53;;;;;;;28.33;17.80;;;;;;;;;;763444;183;914780;-69
2023/02/17 13:30:31;;;;;;;26.67;17.07;;;;;;;;;;756838;182;919559;-69
2023/02/17 13:32:59;;;;;;;27.50;16.27;;;;;;;;;;756632;184;920855;-70
2023/02/17 13:35:27;;;;;;;25.80;15.70;;;;;;;;;;755760;184;921132;-70
2023/02/17 13:37:53;;;;;;;29.98;16.85;;;;;;;;;;759957;183;919551;-70
2023/02/17 13:40:34;;;;;;;22.23;16.53;;;;;;;;;;758511;183;920618;-71
2023/02/17 13:43:06;;;;;;;31.83;16.80;;;;;;;;;;763023;183;904965;-70
2023/02/17 13:45:34;;;;;;;27.50;15.67;;;;;;;;;;759512;183;921416;-70
2023/02/17 13:48:00;;;;;;;24.73;14.20;;;;;;;;;;756709;183;919299;-70
2023/02/17 13:50:27;;;;;;;24.03;15.63;;;;;;;;;;760380;183;1022331;-70
2023/02/17 13:52:53;;;;;;;26.07;16.37;;;;;;;;;;758792;183;918965;-70
2023/02/17 13:55:18;;;;;;;29.20;17.00;;;;;;;;;;756259;183;1020756;-70
2023/02/17 13:57:44;;;;;;;22.10;15.73;;;;;;;;;;757890;183;919836;-70
2023/02/17 14:00:16;;;;;;;24.93;16.50;;;;;;;;;;758703;183;1003608;-70
2023/02/17 14:02:44;;;;;;;27.07;15.37;;;;;;;;;;757441;183;917876;-70
2023/02/17 14:05:18;;;;;;;27.87;17.67;;;;;;;;;;758929;183;918698;-70